createdAt,value
2023-05-22T00:02:16.829Z,18.27
2023-05-22T00:04:46.797Z,18.41
2023-05-22T00:07:14.364Z,18.32
2023-05-22T00:09:41.923Z,18.16
2023-05-22T00:12:09.707Z,18.15
2023-05-22T00:14:37.286Z,18.13
2023-05-22T00:17:05.590Z,18.08
2023-05-22T00:19:33.391Z,18.19
2023-05-22T00:22:02.404Z,18.08
2023-05-22T00:24:29.908Z,18.00
2023-05-22T00:26:57.435Z,18.00
2023-05-22T00:29:24.991Z,18.01
2023-05-22T00:31:52.545Z,18.02
2023-05-22T00:34:20.404Z,18.15
2023-05-22T00:36:47.996Z,17.95
2023-05-22T00:39:17.046Z,17.99
2023-05-22T00:41:44.655Z,17.86
2023-05-22T00:44:12.822Z,17.94
2023-05-22T00:46:40.974Z,17.89
2023-05-22T00:49:08.600Z,17.73
2023-05-22T00:51:36.137Z,17.94
2023-05-22T00:54:03.646Z,17.83
2023-05-22T00:56:32.674Z,18.13
2023-05-22T00:59:00.385Z,17.84
2023-05-22T01:01:33.368Z,17.61
2023-05-22T01:04:01.855Z,17.75
2023-05-22T01:06:32.139Z,17.97
2023-05-22T01:08:59.766Z,17.70
2023-05-22T01:11:32.712Z,17.74
2023-05-22T01:14:08.421Z,17.84
2023-05-22T01:16:40.458Z,17.69
2023-05-22T01:19:15.996Z,17.70
2023-05-22T01:21:49.111Z,17.62
2023-05-22T01:24:51.877Z,17.60
2023-05-22T01:27:29.176Z,17.60
2023-05-22T01:30:09.482Z,17.43
2023-05-22T01:32:39.634Z,17.47
2023-05-22T01:35:09.128Z,17.24
2023-05-22T01:37:37.311Z,17.35
2023-05-22T01:40:07.443Z,17.42
2023-05-22T01:42:35.534Z,17.18
2023-05-22T01:45:03.298Z,17.40
2023-05-22T01:47:31.463Z,17.31
2023-05-22T01:50:00.504Z,17.20
2023-05-22T01:52:35.566Z,17.00
2023-05-22T01:55:07.611Z,17.21
2023-05-22T01:57:42.315Z,17.13
2023-05-22T02:00:12.427Z,17.16
2023-05-22T02:02:41.382Z,17.04
2023-05-22T02:05:12.226Z,16.98
2023-05-22T02:07:41.643Z,17.21
2023-05-22T02:10:11.363Z,17.02
2023-05-22T02:12:39.123Z,17.06
2023-05-22T02:15:08.163Z,16.93
2023-05-22T02:17:40.263Z,17.40
2023-05-22T02:20:14.433Z,16.89
2023-05-22T02:22:43.633Z,16.88
2023-05-22T02:25:14.356Z,17.05
2023-05-22T02:27:42.896Z,17.11
2023-05-22T02:30:11.120Z,17.03
2023-05-22T02:32:39.609Z,17.58
2023-05-22T02:35:07.633Z,17.03
2023-05-22T02:37:36.699Z,17.20
2023-05-22T02:40:06.096Z,17.08
2023-05-22T02:42:33.716Z,16.94
2023-05-22T02:45:01.366Z,16.79
2023-05-22T02:47:28.997Z,16.88
2023-05-22T02:49:57.822Z,16.98
2023-05-22T02:52:25.809Z,16.52
2023-05-22T02:54:54.652Z,16.64
2023-05-22T02:57:22.168Z,16.97
2023-05-22T02:59:49.668Z,16.78
2023-05-22T03:02:17.780Z,17.00
2023-05-22T03:04:45.384Z,16.48
2023-05-22T03:07:13.278Z,16.73
2023-05-22T03:09:40.805Z,17.03
2023-05-22T03:12:10.884Z,17.11
2023-05-22T03:14:38.428Z,16.74
2023-05-22T03:17:06.320Z,16.76
2023-05-22T03:19:33.888Z,16.90
2023-05-22T03:22:01.469Z,16.79
2023-05-22T03:24:29.020Z,16.35
2023-05-22T03:26:56.529Z,16.66
2023-05-22T03:29:25.455Z,16.63
2023-05-22T03:31:54.668Z,16.65
2023-05-22T03:34:22.684Z,16.47
2023-05-22T03:36:50.716Z,16.86
2023-05-22T03:39:18.225Z,17.12
2023-05-22T03:41:45.716Z,16.52
2023-05-22T03:44:13.261Z,16.83
2023-05-22T03:46:42.126Z,16.94
2023-05-22T03:49:09.655Z,16.58
2023-05-22T03:51:37.222Z,16.88
2023-05-22T03:54:05.160Z,16.64
2023-05-22T03:56:32.666Z,16.59
2023-05-22T03:59:00.554Z,16.57
2023-05-22T04:01:28.101Z,16.86
2023-05-22T04:03:56.955Z,16.76
2023-05-22T04:06:25.609Z,16.35
2023-05-22T04:08:53.206Z,17.13
2023-05-22T04:11:22.826Z,16.50
2023-05-22T04:13:50.561Z,16.50
2023-05-22T04:16:18.268Z,16.75
2023-05-22T04:18:45.889Z,16.10
2023-05-22T04:21:14.761Z,16.78
2023-05-22T04:23:43.374Z,16.22
2023-05-22T04:26:10.930Z,16.34
2023-05-22T04:28:39.189Z,16.73
2023-05-22T04:31:07.488Z,16.73
2023-05-22T04:33:35.343Z,16.42
2023-05-22T04:36:03.224Z,16.93
2023-05-22T04:38:36.452Z,16.54
2023-05-22T04:41:04.358Z,16.64
2023-05-22T04:43:32.422Z,16.65
2023-05-22T04:46:00.708Z,16.82
2023-05-22T04:48:28.239Z,16.72
2023-05-22T04:50:57.437Z,16.77
2023-05-22T04:53:24.987Z,16.93
2023-05-22T04:55:53.822Z,16.95
2023-05-22T04:58:21.859Z,17.23
2023-05-22T05:00:49.411Z,17.14
2023-05-22T05:03:17.168Z,17.27
2023-05-22T05:05:44.854Z,16.97
2023-05-22T05:08:12.390Z,16.89
2023-05-22T05:10:40.382Z,16.98
2023-05-22T05:13:09.428Z,16.99
2023-05-22T05:15:36.920Z,16.89
2023-05-22T05:18:04.551Z,16.86
2023-05-22T05:20:32.080Z,17.09
2023-05-22T05:22:59.615Z,16.78
2023-05-22T05:25:27.130Z,16.75
2023-05-22T05:27:54.664Z,17.19
2023-05-22T05:30:23.484Z,17.40
2023-05-22T05:32:51.262Z,17.28
2023-05-22T05:35:19.083Z,17.38
2023-05-22T05:37:46.577Z,16.83
2023-05-22T05:40:14.964Z,17.36
2023-05-22T05:42:42.480Z,17.32
2023-05-22T05:45:11.567Z,17.51
2023-05-22T05:47:41.316Z,17.27
2023-05-22T05:50:09.660Z,17.54
2023-05-22T05:52:37.190Z,17.29
2023-05-22T05:55:05.101Z,17.73
2023-05-22T05:57:32.700Z,17.94
2023-05-22T06:00:00.381Z,18.40
2023-05-22T06:02:28.143Z,17.62
2023-05-22T06:04:57.035Z,17.61
2023-05-22T06:07:24.637Z,17.97
2023-05-22T06:09:52.568Z,17.77
2023-05-22T06:12:20.086Z,18.17
2023-05-22T06:14:47.620Z,18.00
2023-05-22T06:17:15.461Z,17.93
2023-05-22T06:19:43.183Z,18.48
2023-05-22T06:22:12.202Z,18.17
2023-05-22T06:24:39.808Z,18.73
2023-05-22T06:27:07.846Z,18.52
2023-05-22T06:29:35.366Z,18.70
2023-05-22T06:32:02.949Z,18.84
2023-05-22T06:34:30.519Z,18.82
2023-05-22T06:36:58.061Z,18.82
2023-05-22T06:39:27.063Z,18.75
2023-05-22T06:41:54.569Z,18.76
2023-05-22T06:44:22.086Z,19.21
2023-05-22T06:46:49.619Z,19.34
2023-05-22T06:49:17.127Z,19.59
2023-05-22T06:51:44.821Z,19.49
2023-05-22T06:54:13.742Z,19.34
2023-05-22T06:56:42.779Z,18.86
2023-05-22T06:59:11.686Z,19.32
2023-05-22T07:01:39.386Z,19.55
2023-05-22T07:04:08.941Z,19.60
2023-05-22T07:06:38.892Z,19.72
2023-05-22T07:09:07.067Z,20.41
2023-05-22T07:11:35.553Z,20.05
2023-05-22T07:14:04.482Z,20.60
2023-05-22T07:16:32.085Z,20.24
2023-05-22T07:18:59.636Z,20.54
2023-05-22T07:21:27.181Z,20.63
2023-05-22T07:23:54.795Z,20.28
2023-05-22T07:26:22.584Z,20.30
2023-05-22T07:28:50.415Z,20.29
2023-05-22T07:31:19.327Z,20.76
2023-05-22T07:33:47.038Z,20.87
2023-05-22T07:36:14.531Z,21.57
2023-05-22T07:38:42.168Z,20.53
2023-05-22T07:41:09.663Z,21.80
2023-05-22T07:43:37.404Z,20.60
2023-05-22T07:46:06.124Z,21.63
2023-05-22T07:48:35.049Z,21.34
2023-05-22T07:51:03.700Z,20.94
2023-05-22T07:53:31.728Z,21.46
2023-05-22T07:55:59.265Z,23.12
2023-05-22T07:58:26.886Z,22.35
2023-05-22T08:00:54.506Z,21.79
2023-05-22T08:03:23.982Z,22.25
2023-05-22T08:05:53.255Z,22.41
2023-05-22T08:08:20.832Z,23.97
2023-05-22T08:11:02.887Z,21.89
2023-05-22T08:13:31.536Z,21.71
2023-05-22T08:16:00.325Z,21.97
2023-05-22T08:18:29.284Z,22.07
2023-05-22T08:21:00.138Z,21.83
2023-05-22T08:23:27.691Z,23.35
2023-05-22T08:25:55.229Z,24.05
2023-05-22T08:28:22.728Z,22.91
2023-05-22T08:30:50.277Z,23.08
2023-05-22T08:33:19.654Z,22.93
2023-05-22T08:35:47.345Z,23.82
2023-05-22T08:38:16.360Z,24.10
2023-05-22T08:40:46.620Z,22.10
2023-05-22T08:43:15.481Z,22.32
2023-05-22T08:45:44.306Z,23.16
2023-05-22T08:48:14.008Z,22.09
2023-05-22T08:50:43.494Z,23.87
2023-05-22T08:53:14.855Z,22.27
2023-05-22T08:55:43.753Z,22.45
2023-05-22T08:58:12.259Z,21.66
2023-05-22T09:00:40.086Z,23.74
2023-05-22T09:03:10.170Z,24.27
2023-05-22T09:05:39.191Z,25.88
2023-05-22T09:08:19.079Z,23.14
2023-05-22T09:10:49.921Z,24.82
2023-05-22T09:13:26.115Z,23.75
2023-05-22T09:15:53.878Z,23.29
2023-05-22T09:18:22.056Z,24.17
2023-05-22T09:20:49.621Z,23.53
2023-05-22T09:23:19.711Z,25.08
2023-05-22T09:25:48.750Z,24.14
2023-05-22T09:28:16.287Z,25.76
2023-05-22T09:30:43.985Z,26.28
2023-05-22T09:33:14.149Z,24.66
2023-05-22T09:35:42.147Z,23.63
2023-05-22T09:38:11.457Z,24.52
2023-05-22T09:40:40.651Z,24.93
2023-05-22T09:43:10.421Z,25.59
2023-05-22T09:45:38.894Z,25.15
2023-05-22T09:48:07.419Z,25.35
2023-05-22T09:50:34.976Z,26.21
2023-05-22T09:53:03.872Z,25.88
2023-05-22T09:55:32.060Z,25.91
2023-05-22T09:58:04.276Z,25.90
2023-05-22T10:00:34.526Z,24.44
2023-05-22T10:03:08.162Z,24.14
2023-05-22T10:05:38.032Z,25.81
2023-05-22T10:08:10.383Z,24.86
2023-05-22T10:10:39.462Z,23.35
2023-05-22T10:13:07.789Z,25.17
2023-05-22T10:15:37.025Z,24.70
2023-05-22T10:18:05.826Z,26.74
2023-05-22T10:20:33.662Z,27.11
2023-05-22T10:23:03.818Z,24.21
2023-05-22T10:25:31.496Z,24.54
2023-05-22T10:27:59.612Z,26.87
2023-05-22T10:30:31.026Z,28.00
2023-05-22T10:33:04.892Z,25.58
2023-05-22T10:35:39.841Z,25.91
2023-05-22T10:38:21.774Z,26.56
2023-05-22T10:40:49.714Z,25.72
2023-05-22T10:43:17.291Z,25.34
2023-05-22T10:45:46.000Z,25.11
2023-05-22T10:48:14.910Z,24.23
2023-05-22T10:50:52.781Z,26.77
2023-05-22T10:53:22.098Z,28.39
2023-05-22T10:55:50.130Z,27.82
2023-05-22T10:58:18.097Z,26.23
2023-05-22T11:00:46.112Z,25.54
2023-05-22T11:03:18.401Z,28.32
2023-05-22T11:05:53.737Z,28.19
2023-05-22T11:08:38.334Z,26.84
2023-05-22T11:11:13.836Z,26.96
2023-05-22T11:13:42.467Z,27.02
2023-05-22T11:16:11.294Z,27.53
2023-05-22T11:18:40.286Z,28.09
2023-05-22T11:21:11.220Z,28.09
2023-05-22T11:23:39.076Z,27.04
2023-05-22T11:26:25.564Z,26.37
2023-05-22T11:28:55.542Z,27.90
2023-05-22T11:31:24.160Z,28.95
2023-05-22T11:33:54.189Z,30.56
2023-05-22T11:36:21.912Z,28.23
2023-05-22T11:38:49.563Z,27.34
2023-05-22T11:41:17.160Z,26.92
2023-05-22T11:43:45.199Z,25.82
2023-05-22T11:46:14.096Z,27.32
2023-05-22T11:48:42.099Z,26.62
2023-05-22T11:51:11.168Z,27.25
2023-05-22T11:53:38.711Z,27.28
2023-05-22T11:56:06.877Z,26.90
2023-05-22T11:58:34.933Z,28.94
2023-05-22T12:01:03.356Z,28.52
2023-05-22T12:03:31.591Z,27.06
2023-05-22T12:05:59.868Z,28.53
2023-05-22T12:08:28.780Z,27.71
2023-05-22T12:10:56.291Z,27.52
2023-05-22T12:13:25.121Z,26.70
2023-05-22T12:15:54.298Z,29.10
2023-05-22T12:18:21.902Z,30.18
2023-05-22T12:20:54.320Z,28.39
2023-05-22T12:23:26.181Z,29.82
2023-05-22T12:26:03.788Z,30.58
2023-05-22T12:28:32.918Z,27.82
2023-05-22T12:31:00.614Z,28.47
2023-05-22T12:33:28.833Z,28.38
2023-05-22T12:35:58.457Z,29.66
2023-05-22T12:38:27.494Z,29.40
2023-05-22T12:40:56.003Z,29.62
2023-05-22T12:43:29.465Z,28.26
2023-05-22T12:45:57.401Z,29.60
2023-05-22T12:48:24.936Z,30.53
2023-05-22T12:50:52.475Z,26.92
2023-05-22T12:53:21.862Z,28.00
2023-05-22T12:55:49.671Z,27.98
2023-05-22T12:58:17.352Z,27.71
2023-05-22T13:00:46.175Z,29.42
2023-05-22T13:03:13.768Z,29.05
2023-05-22T13:05:41.649Z,29.20
2023-05-22T13:08:09.651Z,28.85
2023-05-22T13:10:38.414Z,28.34
2023-05-22T13:13:05.985Z,27.10
2023-05-22T13:15:36.068Z,28.24
2023-05-22T13:18:04.995Z,29.00
2023-05-22T13:20:32.654Z,29.02
2023-05-22T13:23:00.189Z,28.72
2023-05-22T13:25:27.702Z,29.58
2023-05-22T13:27:55.562Z,29.39
2023-05-22T13:30:23.129Z,27.44
2023-05-22T13:32:50.714Z,28.86
2023-05-22T13:35:19.764Z,27.88
2023-05-22T13:37:47.292Z,27.67
2023-05-22T13:40:15.976Z,27.30
2023-05-22T13:42:43.508Z,28.23
2023-05-22T13:45:12.336Z,28.19
2023-05-22T13:47:40.114Z,30.24
2023-05-22T13:50:09.538Z,28.18
2023-05-22T13:52:39.063Z,28.44
2023-05-22T13:55:07.336Z,29.52
2023-05-22T13:57:35.096Z,29.20
2023-05-22T14:00:02.604Z,29.67
2023-05-22T14:02:30.299Z,28.92
2023-05-22T14:04:57.868Z,28.98
2023-05-22T14:07:25.498Z,28.16
2023-05-22T14:09:54.372Z,28.76
2023-05-22T14:12:21.947Z,29.23
2023-05-22T14:14:49.450Z,28.16
2023-05-22T14:17:16.999Z,28.41
2023-05-22T14:19:44.539Z,27.07
2023-05-22T14:22:12.137Z,30.40
2023-05-22T14:24:39.721Z,30.52
2023-05-22T14:27:08.596Z,27.67
2023-05-22T14:29:36.167Z,28.52
2023-05-22T14:32:05.563Z,29.27
2023-05-22T14:34:33.093Z,28.97
2023-05-22T14:37:00.656Z,28.39
2023-05-22T14:39:28.915Z,28.48
2023-05-22T14:41:59.578Z,28.80
2023-05-22T14:44:28.421Z,28.21
2023-05-22T14:46:55.955Z,29.12
2023-05-22T14:49:23.479Z,28.63
2023-05-22T14:51:51.027Z,28.09
2023-05-22T14:54:20.266Z,27.62
2023-05-22T14:56:47.829Z,28.34
2023-05-22T14:59:15.406Z,30.65
2023-05-22T15:01:44.504Z,28.67
2023-05-22T15:04:12.089Z,30.44
2023-05-22T15:06:39.734Z,31.31
2023-05-22T15:09:07.272Z,28.87
2023-05-22T15:11:34.850Z,28.26
2023-05-22T15:14:02.372Z,28.56
2023-05-22T15:16:30.013Z,27.87
2023-05-22T15:18:58.943Z,27.58
2023-05-22T15:21:26.630Z,28.12
2023-05-22T15:23:54.187Z,28.70
2023-05-22T15:26:22.298Z,28.26
2023-05-22T15:28:49.796Z,28.30
2023-05-22T15:31:17.362Z,28.04
2023-05-22T15:33:46.462Z,27.86
2023-05-22T15:36:15.337Z,27.42
2023-05-22T15:38:42.875Z,27.93
2023-05-22T15:41:10.418Z,28.31
2023-05-22T15:43:38.038Z,28.92
2023-05-22T15:46:05.609Z,27.36
2023-05-22T15:48:33.270Z,27.93
2023-05-22T15:51:00.869Z,28.84
2023-05-22T15:53:29.706Z,27.00
2023-05-22T15:55:57.224Z,27.57
2023-05-22T15:58:24.768Z,26.17
2023-05-22T16:00:52.305Z,26.43
2023-05-22T16:03:19.922Z,26.80
2023-05-22T16:05:47.811Z,26.08
2023-05-22T16:08:15.964Z,26.67
2023-05-22T16:10:46.971Z,26.66
2023-05-22T16:13:14.944Z,27.75
2023-05-22T16:15:44.626Z,26.85
2023-05-22T16:18:12.865Z,27.37
2023-05-22T16:20:40.527Z,26.10
2023-05-22T16:23:08.064Z,26.08
2023-05-22T16:25:35.612Z,26.05
2023-05-22T16:28:05.573Z,26.06
2023-05-22T16:30:33.114Z,26.60
2023-05-22T16:33:00.721Z,26.17
2023-05-22T16:35:28.409Z,26.78
2023-05-22T16:37:55.932Z,26.43
2023-05-22T16:40:23.436Z,25.94
2023-05-22T16:42:51.676Z,25.20
2023-05-22T16:45:20.551Z,27.06
2023-05-22T16:47:48.105Z,27.08
2023-05-22T16:50:15.792Z,27.01
2023-05-22T16:52:43.308Z,26.53
2023-05-22T16:55:11.238Z,26.37
2023-05-22T16:57:39.223Z,26.50
2023-05-22T17:00:10.735Z,25.75
2023-05-22T17:02:39.787Z,25.91
2023-05-22T17:05:08.296Z,26.42
2023-05-22T17:07:35.786Z,25.10
2023-05-22T17:10:07.293Z,25.89
2023-05-22T17:12:34.921Z,26.46
2023-05-22T17:15:02.449Z,26.32
2023-05-22T17:17:30.029Z,26.35
2023-05-22T17:19:59.543Z,26.92
2023-05-22T17:22:27.063Z,26.40
2023-05-22T17:24:54.596Z,26.09
2023-05-22T17:27:34.984Z,26.30
2023-05-22T17:30:06.896Z,26.51
2023-05-22T17:32:34.840Z,26.25
2023-05-22T17:35:05.996Z,25.98
2023-05-22T17:37:33.522Z,25.21
2023-05-22T17:40:01.185Z,25.08
2023-05-22T17:42:28.869Z,25.30
2023-05-22T17:44:56.467Z,24.91
2023-05-22T17:47:23.993Z,25.74
2023-05-22T17:49:51.570Z,24.77
2023-05-22T17:52:20.428Z,24.87
2023-05-22T17:54:49.830Z,26.05
2023-05-22T17:57:17.369Z,24.54
2023-05-22T17:59:44.990Z,24.47
2023-05-22T18:02:12.523Z,24.89
2023-05-22T18:04:40.659Z,24.67
2023-05-22T18:07:08.221Z,24.28
2023-05-22T18:09:37.062Z,24.57
2023-05-22T18:12:04.860Z,25.83
2023-05-22T18:14:32.402Z,25.18
2023-05-22T18:16:59.935Z,24.14
2023-05-22T18:19:27.528Z,24.69
2023-05-22T18:21:55.585Z,24.51
2023-05-22T18:24:25.072Z,24.27
2023-05-22T18:26:54.799Z,24.59
2023-05-22T18:29:22.303Z,24.13
2023-05-22T18:31:49.847Z,24.04
2023-05-22T18:34:17.413Z,23.70
2023-05-22T18:36:45.037Z,23.86
2023-05-22T18:39:12.550Z,23.73
2023-05-22T18:41:40.085Z,24.17
2023-05-22T18:44:08.899Z,22.99
2023-05-22T18:46:36.451Z,23.72
2023-05-22T18:49:04.919Z,23.69
2023-05-22T18:51:32.666Z,23.92
2023-05-22T18:54:00.210Z,23.89
2023-05-22T18:56:27.769Z,23.71
2023-05-22T18:58:55.520Z,23.33
2023-05-22T19:01:24.377Z,23.72
2023-05-22T19:03:51.956Z,23.25
2023-05-22T19:06:19.813Z,23.32
2023-05-22T19:08:47.334Z,22.90
2023-05-22T19:11:14.837Z,23.21
2023-05-22T19:13:42.921Z,23.15
2023-05-22T19:16:10.476Z,22.79
2023-05-22T19:18:39.358Z,23.12
2023-05-22T19:21:07.053Z,22.89
2023-05-22T19:23:34.602Z,23.12
2023-05-22T19:26:02.160Z,22.68
2023-05-22T19:28:31.503Z,23.27
2023-05-22T19:31:00.052Z,22.87
2023-05-22T19:33:27.716Z,22.50
2023-05-22T19:35:56.599Z,22.69
2023-05-22T19:38:24.176Z,22.83
2023-05-22T19:40:51.704Z,22.72
2023-05-22T19:43:19.383Z,22.90
2023-05-22T19:45:47.133Z,23.10
2023-05-22T19:48:14.936Z,22.95
2023-05-22T19:50:42.863Z,23.96
2023-05-22T19:53:11.840Z,22.83
2023-05-22T19:55:39.381Z,22.83
2023-05-22T19:58:06.953Z,23.30
2023-05-22T20:00:35.709Z,23.23
2023-05-22T20:03:03.420Z,23.37
2023-05-22T20:05:30.986Z,23.24
2023-05-22T20:07:58.893Z,23.05
2023-05-22T20:10:27.726Z,21.95
2023-05-22T20:12:55.708Z,21.06
2023-05-22T20:15:24.799Z,20.34
2023-05-22T20:17:53.506Z,19.83
2023-05-22T20:20:21.256Z,19.84
2023-05-22T20:22:48.907Z,19.90
2023-05-22T20:25:17.231Z,20.40
2023-05-22T20:27:46.104Z,20.44
2023-05-22T20:30:14.400Z,20.93
2023-05-22T20:32:42.647Z,21.30
2023-05-22T20:35:10.816Z,19.45
2023-05-22T20:37:38.620Z,19.20
2023-05-22T20:40:09.169Z,19.05
2023-05-22T20:42:37.415Z,19.10
2023-05-22T20:45:07.463Z,18.72
2023-05-22T20:47:35.695Z,18.79
2023-05-22T20:50:03.280Z,18.51
2023-05-22T20:52:31.211Z,18.47
2023-05-22T20:54:58.953Z,18.83
2023-05-22T20:57:26.792Z,18.74
2023-05-22T20:59:54.942Z,17.98
2023-05-22T21:02:23.785Z,17.67
2023-05-22T21:04:51.324Z,17.73
2023-05-22T21:07:19.552Z,18.04
2023-05-22T21:09:47.161Z,18.01
2023-05-22T21:12:14.700Z,17.75
2023-05-22T21:14:43.731Z,17.41
2023-05-22T21:17:11.444Z,17.97
2023-05-22T21:19:40.322Z,17.50
2023-05-22T21:22:07.903Z,17.76
2023-05-22T21:24:35.481Z,17.65
2023-05-22T21:27:02.982Z,17.60
2023-05-22T21:29:30.511Z,17.95
2023-05-22T21:31:58.027Z,18.01
2023-05-22T21:34:25.852Z,17.20
2023-05-22T21:36:54.685Z,17.01
2023-05-22T21:39:22.180Z,17.38
2023-05-22T21:41:50.070Z,16.90
2023-05-22T21:44:18.466Z,17.32
2023-05-22T21:46:46.046Z,17.07
2023-05-22T21:49:13.608Z,17.16
2023-05-22T21:51:41.307Z,16.89
2023-05-22T21:54:10.135Z,17.72
2023-05-22T21:56:38.538Z,18.70
2023-05-22T21:59:06.068Z,19.31
2023-05-22T22:01:33.644Z,17.94
2023-05-22T22:04:01.217Z,17.23
2023-05-22T22:06:28.885Z,17.36
2023-05-22T22:08:58.724Z,17.20
2023-05-22T22:11:27.575Z,17.98
2023-05-22T22:13:55.088Z,17.09
2023-05-22T22:16:22.732Z,16.96
2023-05-22T22:18:51.156Z,18.23
2023-05-22T22:21:18.696Z,19.09
2023-05-22T22:23:46.331Z,18.22
2023-05-22T22:26:14.086Z,17.33
2023-05-22T22:28:42.929Z,17.64
2023-05-22T22:31:10.449Z,17.50
2023-05-22T22:33:38.134Z,16.94
2023-05-22T22:36:06.129Z,17.70
2023-05-22T22:38:35.045Z,17.89
2023-05-22T22:41:03.980Z,17.38
2023-05-22T22:43:32.248Z,16.97
2023-05-22T22:46:01.154Z,17.71
2023-05-22T22:48:28.805Z,17.71
2023-05-22T22:50:56.406Z,17.70
2023-05-22T22:53:23.916Z,17.03
2023-05-22T22:55:55.583Z,16.71
2023-05-22T22:58:23.522Z,17.29
2023-05-22T23:00:51.087Z,17.57
2023-05-22T23:03:20.164Z,17.34
2023-05-22T23:05:48.031Z,17.54
2023-05-22T23:08:15.783Z,17.36
2023-05-22T23:10:43.297Z,17.70
2023-05-22T23:13:10.904Z,17.96
2023-05-22T23:15:38.733Z,17.27
2023-05-22T23:18:06.701Z,17.26
2023-05-22T23:20:35.668Z,16.94
2023-05-22T23:23:03.190Z,16.39
2023-05-22T23:25:30.917Z,16.55
2023-05-22T23:27:58.417Z,16.37
2023-05-22T23:30:25.981Z,16.42
2023-05-22T23:32:53.731Z,16.27
2023-05-22T23:35:21.320Z,16.24
2023-05-22T23:37:50.124Z,16.19
2023-05-22T23:40:17.902Z,16.25
2023-05-22T23:42:45.572Z,16.19
2023-05-22T23:45:13.091Z,16.06
2023-05-22T23:47:40.665Z,16.52
2023-05-22T23:50:08.949Z,16.70
2023-05-22T23:52:36.617Z,16.60
2023-05-22T23:55:06.623Z,17.00
2023-05-22T23:57:34.387Z,16.66
